Time;durP1;ratioP1;P1;durP2;ratioP2;P2;SDS_P1;SDS_P2;PMS_P1;PMS_P2;Temp;Humidity;BMP_temperature;BMP_pressure;BME280_temperature;BME280_humidity;BME280_pressure;Samples;Min_cycle;Max_cycle;Signal;HPM_P1;HPM_P2
2023/05/27 00:00:27;;;;;;;14.73;5.90;;;;;;;10.63;74.99;102293.50;4915075;29;20451;-68
2023/05/27 00:02:57;;;;;;;11.90;4.40;;;;;;;10.85;74.16;102292.81;4907406;29;20421;-68
2023/05/27 00:05:26;;;;;;;12.10;5.00;;;;;;;10.67;74.95;102294.84;4919947;29;20989;-67
2023/05/27 00:07:56;;;;;;;9.47;4.03;;;;;;;10.66;75.49;102298.56;4920053;29;20485;-68
2023/05/27 00:10:25;;;;;;;14.33;5.20;;;;;;;11.16;74.16;102295.66;4916604;29;20442;-66
2023/05/27 00:12:54;;;;;;;8.33;3.57;;;;;;;11.77;71.58;102299.56;4920616;29;20788;-68
2023/05/27 00:15:23;;;;;;;7.97;4.07;;;;;;;11.60;70.98;102298.78;4918325;29;20476;-67
2023/05/27 00:17:52;;;;;;;9.07;4.13;;;;;;;11.18;72.63;102298.22;4923263;29;20444;-68
2023/05/27 00:20:23;;;;;;;16.37;5.67;;;;;;;10.81;74.25;102298.72;4914605;29;20438;-68
2023/05/27 00:22:52;;;;;;;16.30;5.13;;;;;;;11.05;75.01;102298.72;4922675;29;20458;-67
2023/05/27 00:25:22;;;;;;;9.17;4.60;;;;;;;11.23;73.97;102291.22;4926514;29;20464;-66
2023/05/27 00:27:51;;;;;;;11.80;5.47;;;;;;;10.65;75.02;102293.34;4911981;29;20440;-65
2023/05/27 00:30:20;;;;;;;12.73;5.47;;;;;;;10.68;76.00;102296.53;4915748;29;20445;-67
2023/05/27 00:32:49;;;;;;;11.50;5.40;;;;;;;10.89;75.00;102296.84;4921152;29;20450;-67
2023/05/27 00:35:18;;;;;;;11.93;5.97;;;;;;;10.76;74.83;102303.81;4916242;29;20487;-68
2023/05/27 00:37:50;;;;;;;13.27;5.20;;;;;;;11.03;74.31;102289.09;4913080;29;20440;-66
2023/05/27 00:40:23;;;;;;;9.73;5.00;;;;;;;10.77;75.80;102289.25;4910181;29;20495;-67
2023/05/27 00:42:53;;;;;;;12.10;5.23;;;;;;;10.94;75.01;102288.22;4915985;29;20445;-66
2023/05/27 00:45:22;;;;;;;12.70;5.90;;;;;;;10.97;75.20;102284.34;4914236;29;21038;-64
2023/05/27 00:47:51;;;;;;;9.40;5.03;;;;;;;11.55;72.78;102290.31;4899649;29;20433;-65
2023/05/27 00:50:21;;;;;;;12.67;5.30;;;;;;;11.11;73.56;102294.47;4915508;29;20483;-66
2023/05/27 00:52:55;;;;;;;6.80;5.20;;;;;;;10.84;75.45;102293.00;4913667;29;20445;-66
2023/05/27 00:55:24;;;;;;;10.93;5.70;;;;;;;10.86;75.36;102289.09;4913599;29;20484;-68
2023/05/27 00:57:54;;;;;;;10.90;5.10;;;;;;;10.98;74.66;102296.88;4918016;29;20436;-68
2023/05/27 01:00:24;;;;;;;11.40;4.50;;;;;;;10.81;75.91;102291.47;4921399;29;20475;-67
2023/05/27 01:02:53;;;;;;;11.30;5.77;;;;;;;11.32;73.36;102292.06;4917987;29;20453;-67
2023/05/27 01:05:22;;;;;;;6.93;5.13;;;;;;;11.16;73.65;102294.81;4914917;29;20469;-67
2023/05/27 01:08:11;;;;;;;7.73;4.93;;;;;;;10.81;75.60;102290.63;4917885;29;21021;-68
2023/05/27 01:10:45;;;;;;;14.23;5.70;;;;;;;10.78;75.60;102286.41;4903475;29;20444;-68
2023/05/27 01:13:21;;;;;;;10.97;5.43;;;;;;;11.55;73.08;102289.47;4910765;29;20524;-67
2023/05/27 01:15:54;;;;;;;12.97;5.77;;;;;;;11.34;73.55;102287.31;4918997;29;20467;-68
2023/05/27 01:18:26;;;;;;;13.93;5.13;;;;;;;11.45;73.13;102284.25;4918550;29;20412;-66
2023/05/27 01:21:00;;;;;;;9.37;5.07;;;;;;;11.17;75.06;102281.09;4915299;29;20472;-68
2023/05/27 01:23:31;;;;;;;10.70;4.90;;;;;;;10.98;74.42;102286.03;4912511;29;20453;-68
2023/05/27 01:26:00;;;;;;;8.70;5.43;;;;;;;10.41;76.56;102291.44;4910845;29;20513;-70
2023/05/27 01:28:29;;;;;;;13.50;5.97;;;;;;;10.01;78.51;102293.03;4907689;29;20423;-69
2023/05/27 01:31:13;;;;;;;14.30;7.03;;;;;;;10.48;77.68;102278.94;4899440;29;20473;-67
2023/05/27 01:33:49;;;;;;;18.97;4.60;;;;;;;10.15;78.58;102282.56;4914946;29;20505;-68
2023/05/27 01:36:23;;;;;;;14.17;5.30;;;;;;;10.36;78.73;102283.00;4915168;29;20472;-67
2023/05/27 01:38:56;;;;;;;9.63;5.20;;;;;;;10.14;78.69;102280.88;4914129;29;20449;-67
2023/05/27 01:41:26;;;;;;;11.87;4.87;;;;;;;10.29;79.01;102279.25;4910968;29;20505;-67
2023/05/27 01:43:55;;;;;;;10.67;4.60;;;;;;;9.93;80.45;102279.47;4909952;29;20473;-64
2023/05/27 01:46:24;;;;;;;8.93;4.57;;;;;;;9.91;80.87;102278.81;4912564;29;20555;-67
2023/05/27 01:48:54;;;;;;;13.37;5.03;;;;;;;9.80;81.46;102273.69;4909376;29;20447;-66
2023/05/27 01:51:26;;;;;;;10.93;6.43;;;;;;;9.66;81.92;102276.16;4916051;29;20559;-66
2023/05/27 01:53:56;;;;;;;12.63;5.57;;;;;;;10.11;80.54;102273.09;4908674;29;20549;-64
2023/05/27 01:56:26;;;;;;;22.13;6.00;;;;;;;9.82;81.41;102271.69;4914722;29;20473;-66
2023/05/27 01:58:56;;;;;;;8.43;4.00;;;;;;;9.53;82.82;102265.81;4904664;29;20576;-65
2023/05/27 02:01:27;;;;;;;9.97;5.10;;;;;;;9.42;84.25;102264.25;4906092;29;20536;-73
2023/05/27 02:03:57;;;;;;;14.37;5.07;;;;;;;9.38;84.41;102262.03;4915547;29;20967;-66
2023/05/27 02:06:27;;;;;;;9.90;4.93;;;;;;;9.30;84.86;102270.06;4905568;29;20470;-69
2023/05/27 02:08:57;;;;;;;9.20;5.32;;;;;;;9.35;85.54;102271.28;4904052;29;20477;-64
2023/05/27 02:11:26;;;;;;;15.20;5.10;;;;;;;9.92;82.82;102261.53;4911136;29;20587;-67
2023/05/27 02:13:56;;;;;;;9.87;4.67;;;;;;;9.59;83.20;102263.28;4907021;29;20446;-67
2023/05/27 02:16:25;;;;;;;9.75;4.72;;;;;;;9.22;84.86;102259.22;4927453;29;20477;-67
2023/05/27 02:18:54;;;;;;;15.93;6.32;;;;;;;9.19;86.01;102264.97;4903476;29;20246;-69
2023/05/27 02:21:23;;;;;;;12.55;4.15;;;;;;;9.14;86.32;102268.13;4913542;29;20211;-67
2023/05/27 02:23:52;;;;;;;11.43;5.10;;;;;;;9.19;86.23;102267.66;4909756;29;20213;-67
2023/05/27 02:26:23;;;;;;;10.45;4.60;;;;;;;9.09;86.92;102265.91;4916888;29;20265;-67
2023/05/27 02:28:52;;;;;;;13.13;5.07;;;;;;;8.90;88.51;102268.84;4912733;29;20716;-68
2023/05/27 02:31:21;;;;;;;14.23;5.32;;;;;;;9.09;87.36;102263.22;4912223;29;20192;-65
2023/05/27 02:33:50;;;;;;;7.35;4.47;;;;;;;8.96;88.49;102268.19;4916443;29;20220;-66
2023/05/27 02:36:20;;;;;;;13.32;6.22;;;;;;;9.51;86.61;102262.41;4915946;29;20719;-69
2023/05/27 02:38:49;;;;;;;10.68;4.50;;;;;;;9.80;85.33;102272.84;4918193;29;20283;-67
2023/05/27 02:41:18;;;;;;;17.02;4.68;;;;;;;9.88;83.76;102275.56;4923965;29;20597;-68
2023/05/27 02:43:49;;;;;;;11.57;6.00;;;;;;;9.42;85.39;102271.50;4908819;29;20208;-67
2023/05/27 02:46:18;;;;;;;10.20;4.97;;;;;;;9.30;87.08;102270.06;4920776;29;20264;-67
2023/05/27 02:48:47;;;;;;;11.88;5.15;;;;;;;8.94;88.12;102270.19;4928500;29;20662;-68
2023/05/27 02:51:16;;;;;;;11.63;5.30;;;;;;;8.89;89.39;102267.13;4917549;29;20600;-67
2023/05/27 02:53:45;;;;;;;8.52;4.25;;;;;;;8.88;89.48;102272.69;4918561;29;20685;-68
2023/05/27 02:56:14;;;;;;;14.35;5.85;;;;;;;8.75;90.37;102278.50;4907910;29;20215;-65
2023/05/27 02:58:43;;;;;;;10.02;5.20;;;;;;;8.82;90.41;102278.69;4912548;29;20193;-68
2023/05/27 03:01:13;;;;;;;6.53;4.10;;;;;;;8.83;90.34;102278.56;4907803;29;20612;-67
2023/05/27 03:03:42;;;;;;;10.55;4.40;;;;;;;8.89;90.13;102277.94;4924181;29;20185;-66
2023/05/27 03:06:12;;;;;;;14.85;6.20;;;;;;;8.94;89.68;102282.84;4903715;29;20224;-66
2023/05/27 03:08:41;;;;;;;11.60;4.15;;;;;;;8.84;89.98;102291.03;4918738;29;20185;-66
2023/05/27 03:11:11;;;;;;;10.55;5.28;;;;;;;8.89;90.06;102286.03;4914210;29;20688;-67
2023/05/27 03:13:39;;;;;;;10.43;4.35;;;;;;;8.86;89.96;102289.03;4914876;29;20330;-67
2023/05/27 03:16:09;;;;;;;11.98;5.18;;;;;;;8.93;89.62;102282.00;4909643;29;20225;-65
2023/05/27 03:18:39;;;;;;;10.57;5.35;;;;;;;8.87;89.95;102279.06;4916479;29;20197;-67
2023/05/27 03:21:08;;;;;;;12.68;5.80;;;;;;;8.80;90.23;102288.81;4916652;29;20207;-65
2023/05/27 03:23:37;;;;;;;12.48;4.72;;;;;;;9.03;89.34;102280.06;4916651;29;20583;-68
2023/05/27 03:26:07;;;;;;;9.35;5.03;;;;;;;9.09;88.73;102279.44;4910669;29;20219;-66
2023/05/27 03:28:36;;;;;;;7.78;4.45;;;;;;;9.24;88.67;102282.38;4912248;29;20289;-66
2023/05/27 03:31:05;;;;;;;8.70;5.45;;;;;;;9.38;87.78;102279.09;4910201;29;20570;-66
2023/05/27 03:33:45;;;;;;;11.02;4.50;;;;;;;10.63;82.10;102277.25;4912916;29;20602;-66
2023/05/27 03:36:14;;;;;;;14.60;5.22;;;;;;;11.02;79.08;102274.69;4912977;29;20231;-65
2023/05/27 03:38:43;;;;;;;18.17;4.93;;;;;;;11.36;76.68;102279.03;4910902;29;20196;-68
2023/05/27 03:41:12;;;;;;;10.30;5.40;;;;;;;11.75;74.78;102280.78;4909920;29;20945;-66
2023/05/27 03:43:41;;;;;;;8.70;4.45;;;;;;;11.93;72.91;102282.38;4913026;29;20440;-68
2023/05/27 03:46:11;;;;;;;8.85;4.40;;;;;;;12.14;72.62;102283.47;4907608;29;20276;-67
2023/05/27 03:48:40;;;;;;;13.43;6.33;;;;;;;12.30;71.26;102278.91;4911373;29;20207;-68
2023/05/27 03:51:11;;;;;;;16.02;4.30;;;;;;;12.62;70.75;102282.25;4909913;29;20545;-64
2023/05/27 03:53:40;;;;;;;10.87;4.60;;;;;;;12.81;68.78;102288.22;4913000;29;20221;-66
2023/05/27 03:56:09;;;;;;;9.93;4.27;;;;;;;13.20;67.57;102288.03;4910768;29;20454;-65
2023/05/27 03:58:39;;;;;;;8.30;4.13;;;;;;;13.38;66.21;102281.22;4913641;29;20434;-68
2023/05/27 04:01:08;;;;;;;10.27;4.80;;;;;;;14.12;64.33;102289.28;4912278;29;20813;-66
2023/05/27 04:03:39;;;;;;;12.77;5.00;;;;;;;14.65;61.71;102285.28;4910090;29;20896;-67
2023/05/27 04:06:10;;;;;;;13.17;5.37;;;;;;;14.97;60.52;102289.31;4916783;29;20468;-65
2023/05/27 04:08:40;;;;;;;12.50;4.90;;;;;;;14.86;60.31;102290.72;4909361;29;20808;-68
2023/05/27 04:11:13;;;;;;;12.47;5.27;;;;;;;15.23;59.15;102290.38;4913949;29;20461;-66
2023/05/27 04:13:42;;;;;;;8.20;4.50;;;;;;;15.31;58.13;102292.09;4910694;29;20995;-65
2023/05/27 04:16:12;;;;;;;15.70;5.10;;;;;;;15.75;57.32;102299.94;4912049;29;20473;-67
2023/05/27 04:18:41;;;;;;;11.00;5.37;;;;;;;15.39;57.79;102293.84;4906022;29;20431;-66
2023/05/27 04:21:12;;;;;;;10.50;5.17;;;;;;;15.66;57.02;102301.16;4914900;29;20493;-67
2023/05/27 04:23:43;;;;;;;8.23;4.30;;;;;;;15.69;57.38;102300.75;4909371;29;20476;-67
2023/05/27 04:26:14;;;;;;;12.63;4.60;;;;;;;15.77;56.55;102299.75;4912411;29;20502;-69
2023/05/27 04:28:50;;;;;;;15.03;4.80;;;;;;;16.00;55.78;102309.31;4911278;29;20469;-67
2023/05/27 04:31:20;;;;;;;12.73;4.27;;;;;;;16.04;55.62;102299.66;4912280;29;20805;-65
2023/05/27 04:33:58;;;;;;;8.30;5.07;;;;;;;15.79;56.30;102312.13;4905268;29;20454;-67
2023/05/27 04:36:32;;;;;;;10.23;4.00;;;;;;;16.35;55.01;102311.94;4916587;29;20489;-66
2023/05/27 04:39:08;;;;;;;16.67;7.13;;;;;;;16.87;53.94;102309.34;4908770;29;20453;-67
2023/05/27 04:41:39;;;;;;;16.17;5.90;;;;;;;16.88;53.13;102311.03;4909954;29;20477;-65
2023/05/27 04:44:21;;;;;;;17.50;5.73;;;;;;;16.65;53.54;102305.13;4907089;29;20438;-66
2023/05/27 04:46:52;;;;;;;8.40;4.10;;;;;;;16.60;54.07;102309.53;4897305;29;20435;-67
2023/05/27 04:49:22;;;;;;;18.13;5.00;;;;;;;17.02;53.05;102303.66;4913608;29;20457;-66
2023/05/27 04:51:52;;;;;;;13.20;5.13;;;;;;;17.21;52.67;102316.47;4909531;29;20787;-69
2023/05/27 04:54:22;;;;;;;13.33;5.50;;;;;;;17.86;50.51;102314.69;4913736;29;20471;-66
2023/05/27 04:56:52;;;;;;;11.67;4.60;;;;;;;17.54;51.60;102302.75;4905329;29;20512;-68
2023/05/27 04:59:46;;;;;;;8.37;4.20;;;;;;;17.32;51.54;102287.63;4910647;29;20450;-69
2023/05/27 05:02:22;;;;;;;8.60;4.80;;;;;;;17.41;51.65;102301.94;4914554;29;20577;-67
2023/05/27 05:05:02;;;;;;;9.80;4.30;;;;;;;17.47;51.74;102296.47;4906714;29;20480;-65
2023/05/27 05:07:35;;;;;;;12.50;4.07;;;;;;;18.14;50.05;102287.81;4914208;29;20442;-65
2023/05/27 05:10:05;;;;;;;9.33;4.83;;;;;;;18.77;48.42;102292.50;4914301;29;20456;-68
2023/05/27 05:12:37;;;;;;;16.53;5.40;;;;;;;18.68;47.98;102294.69;4911533;29;20466;-67
2023/05/27 05:15:08;;;;;;;13.97;6.87;;;;;;;18.43;48.95;102291.88;4900893;29;20822;-63
2023/05/27 05:17:37;;;;;;;8.83;3.67;;;;;;;18.93;47.81;102294.66;4905319;29;20496;-68
2023/05/27 05:20:08;;;;;;;13.10;6.97;;;;;;;19.06;47.57;102287.19;4903920;29;20868;-67
2023/05/27 05:22:40;;;;;;;8.80;4.93;;;;;;;19.29;46.76;102286.53;4928214;23;20484;-83
2023/05/27 05:25:11;;;;;;;10.93;4.73;;;;;;;18.64;48.05;102288.78;4928599;29;20525;-83
2023/05/27 05:27:47;;;;;;;11.40;4.67;;;;;;;19.90;45.48;102288.41;4923436;29;20807;-83
2023/05/27 05:30:16;;;;;;;10.10;4.23;;;;;;;18.53;48.02;102286.78;4923064;29;20420;-83
2023/05/27 05:32:46;;;;;;;7.60;4.20;;;;;;;16.42;53.59;102302.72;4934308;29;20765;-83
2023/05/27 05:35:16;;;;;;;17.03;5.33;;;;;;;15.15;57.71;102298.69;4924224;29;20785;-83
2023/05/27 05:37:52;;;;;;;9.20;4.60;;;;;;;14.62;60.44;102291.94;4918178;29;20489;-84
2023/05/27 05:40:23;;;;;;;9.77;4.83;;;;;;;14.15;62.13;102294.34;4928519;29;20502;-83
2023/05/27 05:43:12;;;;;;;7.73;4.27;;;;;;;14.20;62.74;102292.75;4917504;29;20505;-83
2023/05/27 05:45:42;;;;;;;7.67;5.07;;;;;;;14.06;63.07;102295.50;4923851;29;20428;-84
2023/05/27 05:48:11;;;;;;;11.93;4.40;;;;;;;14.02;63.09;102299.66;4915711;29;20417;-83
2023/05/27 05:50:43;;;;;;;10.07;4.97;;;;;;;14.08;62.72;102307.06;4920489;29;20431;-84
2023/05/27 05:53:16;;;;;;;8.53;4.50;;;;;;;14.01;62.97;102301.50;4931852;29;20529;-84
2023/05/27 05:55:47;;;;;;;5.83;4.17;;;;;;;14.06;63.06;102300.94;4935295;29;20432;-84
2023/05/27 05:58:19;;;;;;;5.43;4.03;;;;;;;14.20;61.86;102300.91;4928167;29;20465;-84
2023/05/27 06:00:50;;;;;;;9.97;4.77;;;;;;;14.28;61.84;102300.78;4934775;29;20481;-83
2023/05/27 06:03:37;;;;;;;6.07;3.40;;;;;;;14.51;60.63;102292.50;4918914;29;20545;-84
2023/05/27 06:06:09;;;;;;;10.93;3.47;;;;;;;14.37;59.29;102296.13;4955216;29;20444;-84
2023/05/27 06:08:59;;;;;;;9.00;3.63;;;;;;;14.46;59.30;102302.28;4931392;29;20434;-84
2023/05/27 06:11:55;;;;;;;6.23;3.07;;;;;;;14.27;59.18;102301.84;4933663;29;20441;-82
2023/05/27 06:14:25;;;;;;;4.47;2.97;;;;;;;14.25;57.38;102300.34;4929013;29;20958;-84
2023/05/27 06:16:57;;;;;;;5.50;2.63;;;;;;;14.30;56.38;102306.88;4933257;29;20420;-83
2023/05/27 06:19:27;;;;;;;7.37;2.97;;;;;;;14.31;55.60;102305.88;4942786;29;20528;-84
2023/05/27 06:21:56;;;;;;;3.40;2.13;;;;;;;14.56;55.22;102300.06;4927842;29;20928;-83
2023/05/27 06:24:27;;;;;;;10.37;3.20;;;;;;;14.80;55.83;102310.56;4910022;29;21016;-84
2023/05/27 06:27:07;;;;;;;7.50;3.13;;;;;;;15.17;53.11;102309.41;4912443;29;20440;-83
2023/05/27 06:29:36;;;;;;;2.33;1.63;;;;;;;15.30;49.25;102312.22;4912524;29;20466;-84
2023/05/27 06:32:07;;;;;;;5.60;1.20;;;;;;;15.20;47.92;102311.75;4932452;29;20465;-84
2023/05/27 06:34:37;;;;;;;2.70;1.00;;;;;;;15.39;47.68;102310.22;4936842;29;20499;-83
2023/05/27 06:37:08;;;;;;;7.47;1.83;;;;;;;15.33;47.47;102311.00;4939451;29;20474;-84
2023/05/27 06:39:39;;;;;;;3.07;1.40;;;;;;;15.36;46.97;102318.78;4910814;29;20413;-84
2023/05/27 06:42:08;;;;;;;3.40;1.40;;;;;;;15.29;46.83;102320.63;4921095;29;20492;-84
2023/05/27 06:44:50;;;;;;;3.20;1.50;;;;;;;15.30;47.06;102322.31;4947231;28;20446;-83
2023/05/27 06:47:23;;;;;;;5.37;2.10;;;;;;;15.29;46.56;102317.91;4931623;29;20433;-83
2023/05/27 06:49:52;;;;;;;1.73;1.27;;;;;;;15.29;46.15;102320.63;4934179;29;20506;-85
2023/05/27 06:52:22;;;;;;;3.30;1.40;;;;;;;15.57;45.99;102319.59;4935539;29;20458;-83
2023/05/27 06:55:24;;;;;;;3.70;1.43;;;;;;;15.87;43.25;102320.19;4926826;29;20535;-83
2023/05/27 06:58:03;;;;;;;9.40;2.03;;;;;;;15.77;43.60;102322.44;4928726;29;20436;-85
2023/05/27 07:00:55;;;;;;;4.70;1.57;;;;;;;16.13;44.86;102315.84;4921133;29;20431;-84
2023/05/27 07:03:31;;;;;;;2.07;1.30;;;;;;;16.29;44.31;102318.22;4941296;29;20562;-84
2023/05/27 07:06:00;;;;;;;3.87;1.40;;;;;;;16.55;44.34;102318.31;4923182;29;20414;-84
2023/05/27 07:08:35;;;;;;;8.60;2.70;;;;;;;16.47;44.65;102318.47;4960072;29;20440;-83
2023/05/27 07:11:16;;;;;;;5.60;2.60;;;;;;;16.66;44.55;102314.13;4931202;29;20461;-82
2023/05/27 07:13:46;;;;;;;4.60;3.03;;;;;;;16.46;45.33;102319.53;4928721;29;20496;-84
2023/05/27 07:16:16;;;;;;;13.73;4.73;;;;;;;16.74;45.17;102311.22;4923413;29;20426;-83
2023/05/27 07:18:46;;;;;;;4.03;1.93;;;;;;;16.91;44.60;102315.22;4941849;29;20471;-83
2023/05/27 07:21:17;;;;;;;6.57;1.50;;;;;;;16.88;42.33;102308.28;4929047;29;20425;-83
2023/05/27 07:23:46;;;;;;;3.30;1.67;;;;;;;16.80;41.94;102311.22;4927718;29;20463;-85
2023/05/27 07:26:27;;;;;;;2.10;1.40;;;;;;;16.78;41.90;102307.00;4920967;29;20481;-83
2023/05/27 07:28:59;;;;;;;4.40;1.60;;;;;;;16.64;41.73;102303.44;4929709;29;20414;-84
2023/05/27 07:31:55;;;;;;;2.77;1.20;;;;;;;16.44;40.61;102316.19;4931726;29;20707;-83
2023/05/27 07:34:28;;;;;;;2.87;1.33;;;;;;;16.72;40.78;102307.84;4932394;29;20488;-83
2023/05/27 07:36:58;;;;;;;2.27;1.17;;;;;;;16.83;40.11;102304.50;4932018;29;20445;-84
2023/05/27 07:39:27;;;;;;;6.03;2.30;;;;;;;16.87;38.86;102303.88;4931266;29;20454;-82
2023/05/27 07:41:57;;;;;;;5.77;1.17;;;;;;;16.91;38.95;102296.06;4933303;29;20479;-84
2023/05/27 07:44:30;;;;;;;4.67;1.80;;;;;;;17.23;38.57;102303.41;4941647;29;20472;-83
2023/05/27 07:47:00;;;;;;;3.37;1.30;;;;;;;17.09;38.48;102298.19;4931709;29;20443;-83
2023/05/27 07:49:29;;;;;;;2.60;1.40;;;;;;;17.29;38.84;102293.53;4916872;29;20444;-83
2023/05/27 07:52:19;;;;;;;1.80;1.10;;;;;;;17.07;39.79;102295.66;4918634;29;20420;-83
2023/05/27 07:54:48;;;;;;;2.50;1.20;;;;;;;17.04;38.35;102289.78;4923067;29;20427;-83
2023/05/27 07:57:27;;;;;;;6.20;1.50;;;;;;;17.29;39.17;102277.09;4918883;29;20400;-83
2023/05/27 07:59:56;;;;;;;3.67;1.70;;;;;;;17.43;39.56;102284.22;4938820;29;20494;-84
2023/05/27 08:02:34;;;;;;;3.67;1.80;;;;;;;17.14;39.99;102290.16;4919502;29;20472;-84
2023/05/27 08:05:04;;;;;;;4.83;1.30;;;;;;;17.28;39.63;102267.25;4927074;29;20454;-84
2023/05/27 08:08:00;;;;;;;6.00;1.73;;;;;;;17.65;39.00;102265.69;4926005;29;20939;-84
2023/05/27 08:10:52;;;;;;;3.43;0.97;;;;;;;17.86;38.46;102272.78;4926020;29;20435;-84
2023/05/27 08:13:48;;;;;;;2.40;1.10;;;;;;;17.96;36.21;102264.94;4932077;29;20852;-84
2023/05/27 08:16:30;;;;;;;2.27;1.00;;;;;;;18.12;36.65;102261.69;4929329;29;20532;-84
2023/05/27 08:19:07;;;;;;;8.10;1.40;;;;;;;17.95;37.25;102260.53;4939522;28;20486;-83
2023/05/27 08:21:50;;;;;;;2.13;1.10;;;;;;;18.07;37.21;102258.75;4944947;28;20441;-84
2023/05/27 08:24:49;;;;;;;2.63;1.37;;;;;;;18.21;36.82;102249.41;4939606;29;20420;-84
2023/05/27 08:27:51;;;;;;;7.30;1.10;;;;;;;17.97;35.49;102245.53;4937568;29;20444;-84
2023/05/27 08:30:36;;;;;;;4.07;1.37;;;;;;;17.85;36.20;102244.56;4933686;29;20431;-82
2023/05/27 08:33:13;;;;;;;2.30;1.23;;;;;;;18.03;35.61;102246.56;4933384;29;20456;-82
2023/05/27 08:35:48;;;;;;;1.43;0.80;;;;;;;17.90;35.32;102238.41;4939911;28;20445;-84
2023/05/27 08:38:18;;;;;;;1.50;0.90;;;;;;;17.58;36.06;102243.78;4935244;29;20428;-83
2023/05/27 08:40:48;;;;;;;2.33;1.40;;;;;;;18.12;36.13;102245.25;4925981;29;20446;-83
2023/05/27 08:43:21;;;;;;;3.13;1.10;;;;;;;18.25;36.30;102239.66;4934324;28;20532;-84
2023/05/27 08:45:56;;;;;;;2.77;1.20;;;;;;;17.94;36.06;102242.41;4925506;29;20437;-83
2023/05/27 08:48:26;;;;;;;5.80;1.80;;;;;;;18.03;35.92;102235.59;4926138;29;20460;-84
2023/05/27 08:50:56;;;;;;;2.70;1.30;;;;;;;17.86;35.85;102239.91;4913010;29;20433;-83
2023/05/27 08:53:27;;;;;;;3.67;1.40;;;;;;;17.70;35.46;102231.13;4928983;29;20436;-83
2023/05/27 08:56:01;;;;;;;3.93;1.30;;;;;;;17.83;36.16;102232.13;4930690;29;20481;-83
2023/05/27 08:58:32;;;;;;;2.00;1.13;;;;;;;17.98;34.17;102221.72;4925865;29;20447;-84
2023/05/27 09:01:04;;;;;;;7.00;1.50;;;;;;;18.26;34.22;102216.69;4928165;29;20490;-84
2023/05/27 09:03:34;;;;;;;1.90;1.27;;;;;;;18.37;33.11;102209.66;4921422;29;20456;-84
2023/05/27 09:06:04;;;;;;;2.90;1.73;;;;;;;18.65;33.01;102219.19;4922683;29;20428;-84
2023/05/27 09:08:33;;;;;;;1.47;0.87;;;;;;;18.44;32.93;102222.28;4924076;29;20828;-84
2023/05/27 09:11:26;;;;;;;1.80;1.00;;;;;;;18.38;33.31;102223.16;4920601;29;20521;-82
2023/05/27 09:13:57;;;;;;;3.00;1.23;;;;;;;18.51;32.69;102214.00;4921254;29;20448;-83
2023/05/27 09:16:30;;;;;;;3.50;1.37;;;;;;;18.50;31.83;102215.88;4928648;29;20412;-83
2023/05/27 09:18:59;;;;;;;2.60;1.23;;;;;;;18.49;31.73;102222.44;4929157;29;20468;-84
2023/05/27 09:21:30;;;;;;;1.73;1.10;;;;;;;18.45;32.01;102223.09;4928886;29;20559;-84
2023/05/27 09:24:02;;;;;;;1.93;1.43;;;;;;;18.69;31.73;102213.25;4927482;29;20477;-84
2023/05/27 09:26:34;;;;;;;3.40;1.10;;;;;;;18.76;32.03;102220.34;4929066;29;20423;-85
2023/05/27 09:29:07;;;;;;;2.80;1.07;;;;;;;18.54;32.44;102217.16;4931323;29;20457;-83
2023/05/27 09:31:42;;;;;;;3.13;1.50;;;;;;;18.73;32.94;102211.75;4928819;29;20421;-85
2023/05/27 09:34:13;;;;;;;2.50;1.20;;;;;;;18.98;33.23;102213.38;4927900;29;20500;-84
2023/05/27 09:36:47;;;;;;;3.00;1.07;;;;;;;19.15;32.26;102218.28;4922584;29;20428;-83
2023/05/27 09:39:18;;;;;;;2.43;1.20;;;;;;;18.82;32.98;102207.66;4920725;29;20443;-83
2023/05/27 09:41:54;;;;;;;2.50;1.27;;;;;;;18.93;33.68;102210.47;4937450;29;20438;-86
2023/05/27 09:44:27;;;;;;;2.53;1.40;;;;;;;18.72;33.74;102212.81;4921173;29;20480;-83
2023/05/27 09:46:59;;;;;;;3.83;1.20;;;;;;;18.65;32.26;102205.47;4929808;29;20431;-83
2023/05/27 09:49:29;;;;;;;3.13;1.10;;;;;;;18.82;32.35;102213.13;4929325;29;20419;-84
2023/05/27 09:51:58;;;;;;;3.33;1.43;;;;;;;19.06;31.81;102210.38;4941402;29;20478;-83
2023/05/27 09:54:28;;;;;;;2.77;1.20;;;;;;;19.03;32.30;102207.22;4915756;29;20452;-84
2023/05/27 09:56:59;;;;;;;3.20;1.60;;;;;;;19.51;32.36;102207.34;4918689;29;20427;-84
2023/05/27 09:59:28;;;;;;;2.60;1.00;;;;;;;19.39;31.42;102207.25;4924652;29;20556;-84
2023/05/27 10:02:01;;;;;;;3.03;1.73;;;;;;;19.39;30.89;102198.19;4924297;29;20425;-84
2023/05/27 10:04:31;;;;;;;2.60;1.20;;;;;;;19.79;31.18;102198.56;4929644;29;20511;-84
2023/05/27 10:07:00;;;;;;;2.33;1.60;;;;;;;19.79;30.76;102199.41;4923162;29;20420;-83
2023/05/27 10:09:31;;;;;;;2.77;1.20;;;;;;;19.73;30.53;102191.25;4929483;29;20512;-84
2023/05/27 10:12:01;;;;;;;2.17;1.33;;;;;;;19.64;30.85;102195.38;4928760;29;20416;-84
2023/05/27 10:14:30;;;;;;;2.13;1.80;;;;;;;19.60;30.84;102178.53;4925212;29;20508;-84
2023/05/27 10:17:01;;;;;;;2.70;1.40;;;;;;;19.74;30.62;102181.94;4923992;29;20438;-84
2023/05/27 10:19:30;;;;;;;4.00;1.60;;;;;;;19.88;31.00;102176.03;4920748;29;20445;-83
2023/05/27 10:22:11;;;;;;;3.60;1.60;;;;;;;19.98;30.19;102178.22;4928534;29;20413;-84
2023/05/27 10:24:41;;;;;;;4.10;1.97;;;;;;;19.90;29.93;102181.25;4936483;29;20534;-84
2023/05/27 10:27:10;;;;;;;2.77;1.73;;;;;;;19.55;30.06;102185.78;4926061;29;20453;-83
2023/05/27 10:29:41;;;;;;;3.47;1.70;;;;;;;19.43;30.27;102183.75;4924420;29;20478;-83
2023/05/27 10:32:12;;;;;;;2.77;1.67;;;;;;;19.30;29.88;102178.44;4920407;29;20973;-83
2023/05/27 10:34:46;;;;;;;2.77;1.43;;;;;;;19.45;30.52;102170.69;4913359;29;20454;-85
2023/05/27 10:37:22;;;;;;;2.17;1.40;;;;;;;19.94;29.13;102168.78;4919034;29;20439;-85
2023/05/27 10:39:58;;;;;;;2.93;1.27;;;;;;;19.88;29.33;102169.69;4921212;29;20495;-83
2023/05/27 10:42:28;;;;;;;2.90;1.37;;;;;;;19.78;30.37;102163.91;4920222;29;20501;-84
2023/05/27 10:45:06;;;;;;;6.20;1.50;;;;;;;19.55;29.96;102163.81;4926963;29;21165;-84
2023/05/27 10:47:45;;;;;;;5.13;1.70;;;;;;;19.63;29.98;102163.47;4923689;29;20495;-84
2023/05/27 10:50:16;;;;;;;2.53;1.40;;;;;;;19.82;29.92;102152.22;4935337;29;20963;-84
2023/05/27 10:52:48;;;;;;;3.67;1.20;;;;;;;19.73;31.17;102155.53;4935514;29;20498;-85
2023/05/27 10:55:21;;;;;;;1.93;1.20;;;;;;;19.85;31.39;102151.75;4936261;29;20440;-85
2023/05/27 10:57:51;;;;;;;4.53;1.80;;;;;;;19.22;31.38;102150.47;4920080;29;20413;-83
2023/05/27 11:00:21;;;;;;;1.90;1.57;;;;;;;19.56;31.58;102149.03;4941255;29;21021;-85
2023/05/27 11:02:52;;;;;;;3.90;2.13;;;;;;;20.04;31.23;102140.72;4916814;29;20482;-84
2023/05/27 11:05:32;;;;;;;3.27;1.53;;;;;;;20.15;30.48;102137.97;4927747;29;20430;-85
2023/05/27 11:08:03;;;;;;;3.73;2.60;;;;;;;20.31;30.26;102142.84;4925619;29;20433;-84
2023/05/27 11:10:32;;;;;;;3.40;2.23;;;;;;;20.06;30.63;102127.56;4932869;29;20532;-83
2023/05/27 11:13:01;;;;;;;2.57;1.50;;;;;;;20.44;30.70;102127.19;4922530;29;20492;-82
2023/05/27 11:15:31;;;;;;;3.20;2.10;;;;;;;20.41;30.70;102125.75;4928307;29;20437;-83
2023/05/27 11:18:04;;;;;;;4.37;1.80;;;;;;;20.71;30.55;102115.50;4936102;29;20578;-83
2023/05/27 11:20:37;;;;;;;2.07;1.63;;;;;;;20.46;30.24;102117.63;4932837;29;20527;-83
2023/05/27 11:23:07;;;;;;;3.57;1.67;;;;;;;20.11;30.44;102113.97;4933617;29;20489;-83
2023/05/27 11:25:44;;;;;;;4.20;1.93;;;;;;;20.40;30.62;102107.56;4928963;29;20458;-84
2023/05/27 11:28:17;;;;;;;3.17;2.07;;;;;;;20.36;30.70;102103.63;4921862;29;20439;-83
2023/05/27 11:30:47;;;;;;;2.97;1.93;;;;;;;20.55;30.05;102105.19;4933127;29;20903;-83
2023/05/27 11:33:32;;;;;;;3.80;2.07;;;;;;;20.79;30.75;102100.50;4927071;29;20445;-84
2023/05/27 11:36:07;;;;;;;3.93;2.10;;;;;;;20.37;30.33;102102.56;4922556;29;20459;-83
2023/05/27 11:38:53;;;;;;;6.07;2.03;;;;;;;20.49;31.28;102099.81;4924073;29;20443;-84
2023/05/27 11:41:25;;;;;;;2.80;1.97;;;;;;;20.86;30.68;102095.75;4927501;29;20442;-84
2023/05/27 11:43:58;;;;;;;3.20;2.07;;;;;;;20.78;30.44;102093.34;4925097;29;20545;-83
2023/05/27 11:46:37;;;;;;;2.57;1.33;;;;;;;20.45;30.41;102088.47;4931579;29;20435;-83
2023/05/27 11:49:10;;;;;;;5.90;1.77;;;;;;;20.51;30.66;102086.66;4918754;29;20948;-83